Página principal
METAR-TAF:

METAR-TAF

Aeroportos :

Chita, Rússia

latitude: 52-05N, longitude: 113-29E, altura: 685 m

Observação actual do tempo

O boletim foi feito há 39 minutos, às 12:30 UTC
Vento 4 kt de nor-noroeste
Temperatura 7°C
Humidade 70%
Pressão 1018 hPa
Visibilidade 10 km ou mais

METAR: UIAA 241230Z AUTO 33002MPS 9999 NCD 07/02 Q1018 RMK QFE704/0939

Hora: 22:09 (13:09 UTC)

Previsão

O boletim foi feito há 2 horas e 9 minutos, às 11:00 UTC
Previsão válida de 24 às 12 UTC a 25 às 12 UTC
Vento 6 kt de este
Visibilidade 10 km ou mais
Nuvens dispersasa uma altura de 4000 ft, Cumulonimbus.

TAF: UIAA 241100Z 2412/2512 10003MPS 9999 SCT040CB

Observações e previsões do tempo de mais de 4000 aeroportos (mensagens METAR e TAF).

As estações disponíveis são os pontos amarelos e vermelhos sobre o mapa.

Mova o rato sobre o mapa para ver o nome da estação.

Depois clique no ponto para visualizar as observações e previsões meteorológicas.

Para alterar o mapa : clique nos botões verdes com uma cruz preta para aumentar o zoom; no botão verde com uma pitada de zoom; ou nas setas verdes para mapas adjacentes.


METAR-TAF: